Airfield :
LOGIN :

Register | Disclaimer

   EN    FR    IT 

 










Legend :    VFR   Marginal VFR   IFR   Intensive IFR   Very Intensive IFR
Visi :
Ceiling :
>= 8 km
>= 3000ft
5 to 8 km
1000 to 3000 ft
1500m to 5 km
500 to 1000 ft
800 to 1500m
200 to 500 ft
< 800m
< 200 ft
Symbols :   Thunderstorms  Fog  Heavy snow  Heavy precipitations  Wind > 20 kt
SIGMETs :     Misc.  Thunderstorms  Icing  Turbulence  Mountain Waves  Volcanic Ashes







- Airport Elevation : 17 ft
- IATA code : GRQ


EHGG - Groningen Eelde

CURRENT METAR :
  • 132225Z AUTO 05006KT 9999 NSC 01/M00 Q1024

EXPIRED METARs :
  • 132155Z AUTO 07005KT 9999 FEW013 01/M00 Q1024 NOSIG
  • 132125Z AUTO 07006KT 040V110 9999 NSC 01/M00 Q1024 NOSIG
  • 132055Z AUTO 07005KT 9999 BKN013 OVC016 01/M00 Q1024 NOSIG
  • 132025Z AUTO 06006KT 9999 FEW019 BKN022 BKN026 01/M00 Q1024 NOSIG
  • 131955Z AUTO 06006KT 030V090 9999 SCT025 01/M01 Q1023 NOSIG

TAF TAF EHGG
Valid from the 13 at 18:00 until the 15 at 00:00 UTC


131709Z 1318/1424 08008KT 9999 SCT025
PROB40 1322/1410 6000
PROB40
TEMPO 1402/1410 BKN008
No reported NOTAMs for that airfield.



MET'MAP, your aeronautical weather chart ! - Copyright ORBIFLY December 2007 - Disclaimer

ORBIFLY MET'MAP TEAM :

Programming & Development : Alexandra Zaïnal
Concept & Development : Baudouin d'Aumeries
Co-Development & Prog : Marc-Olivier Méhu
Technical & hardware support : Manuel Goepfert

Contact : metmap@orbifly.com




SOURCES & CREDITS :

   NOAA